LICB/CIY METAR and TAF weather

Enter ICAO airport designator
Station Type Date Time Source
LICB METAR 2020/04/05 21:50 UTC NOAA

LICB 052150Z AUTO 06005KT 9999 NCD 08/04 Q1018


Station Type Date Time Source
LICB Decoded METAR 2020/04/05 21:50 UTC NOAA

Comiso As Usaf , Italy (LICB) 36-56N 014-36E
Apr 05, 2020 - 05:50 PM EDT / 2020.04.05 2150 UTC
Wind: from the ENE (060 degrees) at 6 MPH (5 KT):0
Visibility: greater than 7 mile(s):0
Temperature: 46 F (8 C)
Dew Point: 39 F (4 C)
Relative Humidity: 75%
Pressure (altimeter): 30.06 in. Hg (1018 hPa)
ob: LICB 052150Z AUTO 06005KT 9999 NCD 08/04 Q1018
cycle: 22

Station Type Date Time Source
LICB TAF UTC NOAA

Error!

Example: see airport list